Terminal Aerodrome Forecast
Issued by NWS Corpus Christi, TX

Home | Current Version | Previous Version | Text Only | Print | Product List | Glossary On
Versions: 1 2 3 4 5 6 7 8 9 10 11 12 13 14
000
FTUS44 KCRP 262300
TAFCRP
TAF
KCRP 262329Z 2700/2724 15015G20KT P6SM SCT030 BKN250
     FM270300 15012KT P6SM OVC015
     FM270800 15004KT 5SM BR OVC012
      TEMPO 2710/2714 2SM BR OVC007
     FM271600 17008KT P6SM VCSH OVC015
     FM271800 18012KT P6SM VCSH BKN025 PROB30 2721/2724 3SM -SHRA
      OVC020=

USA.gov is the U.S. government's official web portal to all federal, state and local government web resources and services.